Time;durP1;ratioP1;P1;durP2;ratioP2;P2;SDS_P1;SDS_P2;PMS_P1;PMS_P2;Temp;Humidity;BMP_temperature;BMP_pressure;BME280_temperature;BME280_humidity;BME280_pressure;Samples;Min_cycle;Max_cycle;Signal;HPM_P1;HPM_P2
2023/10/20 00:02:30;;;;;;;21.30;14.23;;;12.10;99.90;;;;;;5014982;28;20042;-64
2023/10/20 00:05:05;;;;;;;21.70;15.75;;;12.10;99.90;;;;;;5016895;28;20058;-64
2023/10/20 00:07:37;;;;;;;17.50;14.07;;;12.10;99.90;;;;;;5011041;28;20042;-64
2023/10/20 00:10:11;;;;;;;19.08;15.00;;;12.20;99.90;;;;;;5017300;28;20134;-64
2023/10/20 00:12:43;;;;;;;;;;;12.10;99.90;;;;;;5015101;28;20042;-64
2023/10/20 00:15:15;;;;;;;21.73;15.75;;;12.10;99.90;;;;;;5020202;28;20313;-64
2023/10/20 00:17:47;;;;;;;21.17;15.30;;;12.10;99.90;;;;;;5022203;28;20413;-64
2023/10/20 00:20:19;;;;;;;18.00;14.20;;;12.10;99.90;;;;;;5017079;28;20049;-64
2023/10/20 00:22:46;;;;;;;21.58;15.50;;;12.10;99.90;;;;;;5020390;28;20473;-64
2023/10/20 00:25:18;;;;;;;24.00;14.82;;;12.00;99.90;;;;;;4999212;28;20518;-64
2023/10/20 00:27:50;;;;;;;21.42;16.27;;;12.00;99.90;;;;;;5015349;28;20047;-64
2023/10/20 00:30:21;;;;;;;21.30;16.30;;;12.00;99.90;;;;;;5020195;28;20065;-64
2023/10/20 00:32:53;;;;;;;22.15;15.85;;;12.00;99.90;;;;;;5010354;28;20041;-64
2023/10/20 00:35:21;;;;;;;20.10;16.80;;;12.10;99.90;;;;;;5012579;28;20103;-64
2023/10/20 00:37:48;;;;;;;23.25;17.48;;;12.00;99.90;;;;;;5014002;28;20088;-63
2023/10/20 00:40:20;;;;;;;21.75;16.30;;;12.00;99.90;;;;;;5014639;28;20604;-64
2023/10/20 00:42:51;;;;;;;20.58;16.83;;;12.00;99.90;;;;;;5026804;28;20394;-64
2023/10/20 00:45:23;;;;;;;21.98;17.60;;;11.90;99.90;;;;;;5014966;28;20167;-64
2023/10/20 00:47:56;;;;;;;21.48;16.13;;;12.00;99.90;;;;;;5017203;28;20037;-64
2023/10/20 00:50:23;;;;;;;21.52;16.15;;;12.00;99.90;;;;;;5019660;28;20469;-64
2023/10/20 00:52:55;;;;;;;21.27;16.05;;;12.00;99.90;;;;;;5017559;28;20044;-64
2023/10/20 00:55:28;;;;;;;21.88;16.98;;;12.00;99.90;;;;;;5020799;28;20401;-64
2023/10/20 00:58:00;;;;;;;20.58;16.80;;;12.00;99.90;;;;;;5033563;28;20432;-64
2023/10/20 01:00:32;;;;;;;20.23;16.02;;;12.00;99.90;;;;;;4998081;28;20038;-64
2023/10/20 01:03:04;;;;;;;24.35;16.92;;;11.90;99.90;;;;;;5018407;28;20406;-64
2023/10/20 01:05:37;;;;;;;19.67;16.20;;;12.00;99.90;;;;;;5017471;28;20052;-64
2023/10/20 01:08:09;;;;;;;21.23;17.00;;;11.90;99.90;;;;;;5009983;28;20038;-64
2023/10/20 01:10:37;;;;;;;20.65;15.65;;;12.00;99.90;;;;;;5010296;28;20129;-64
2023/10/20 01:13:09;;;;;;;21.30;15.70;;;11.90;99.90;;;;;;5003324;28;20042;-64
2023/10/20 01:15:37;;;;;;;26.02;18.05;;;11.90;99.90;;;;;;5005898;28;20033;-64
2023/10/20 01:18:10;;;;;;;20.58;15.60;;;11.90;99.90;;;;;;5016037;28;20068;-64
2023/10/20 01:20:42;;;;;;;22.08;16.60;;;11.90;99.90;;;;;;5004801;28;20042;-64
2023/10/20 01:23:14;;;;;;;21.83;17.10;;;11.90;99.90;;;;;;5016227;28;20038;-64
2023/10/20 01:25:46;;;;;;;22.90;16.77;;;11.90;99.90;;;;;;5016167;28;20054;-63
2023/10/20 01:28:19;;;;;;;21.25;16.65;;;11.90;99.90;;;;;;5000983;28;20551;-64
2023/10/20 01:30:50;;;;;;;24.40;17.20;;;11.90;99.90;;;;;;5020196;28;20045;-64
2023/10/20 01:33:18;;;;;;;20.98;16.50;;;11.90;99.90;;;;;;5014972;28;20571;-64
2023/10/20 01:35:44;;;;;;;23.27;17.98;;;11.90;99.90;;;;;;5014567;28;20164;-64
2023/10/20 01:38:16;;;;;;;22.35;16.48;;;11.90;99.90;;;;;;5016448;28;20413;-64
2023/10/20 01:40:48;;;;;;;20.38;15.52;;;11.90;99.90;;;;;;5008554;28;20491;-64
2023/10/20 01:43:21;;;;;;;21.77;17.23;;;11.90;99.90;;;;;;4990274;28;20042;-64
2023/10/20 01:45:47;;;;;;;20.45;15.85;;;12.00;99.90;;;;;;4997290;28;20311;-64
2023/10/20 01:48:19;;;;;;;22.02;15.70;;;12.00;99.90;;;;;;5011653;28;20072;-63
2023/10/20 01:50:51;;;;;;;23.00;16.55;;;12.00;99.90;;;;;;5019805;28;20033;-64
2023/10/20 01:53:18;;;;;;;23.08;16.85;;;12.00;99.90;;;;;;5016925;28;20619;-64
2023/10/20 01:55:50;;;;;;;21.33;17.10;;;12.00;99.90;;;;;;5019943;28;20041;-64
2023/10/20 01:58:22;;;;;;;22.10;15.80;;;11.90;99.90;;;;;;5016717;28;20092;-64
2023/10/20 02:00:54;;;;;;;22.50;17.63;;;11.90;99.90;;;;;;5005774;28;20044;-64
2023/10/20 02:03:26;;;;;;;20.95;17.30;;;12.00;99.90;;;;;;5016840;28;20048;-64
2023/10/20 02:05:58;;;;;;;22.08;17.77;;;11.90;99.90;;;;;;5011442;28;20037;-64
2023/10/20 02:08:30;;;;;;;22.60;18.38;;;11.90;99.90;;;;;;5009410;28;20034;-64
2023/10/20 02:11:02;;;;;;;21.55;17.17;;;11.90;99.90;;;;;;5011688;28;20058;-64
2023/10/20 02:13:38;;;;;;;22.55;17.17;;;11.80;99.90;;;;;;5015628;28;20034;-64
2023/10/20 02:16:11;;;;;;;23.75;18.80;;;11.90;99.90;;;;;;5002284;28;20052;-63
2023/10/20 02:18:38;;;;;;;23.02;18.05;;;11.80;99.90;;;;;;5016960;28;20068;-64
2023/10/20 02:21:10;;;;;;;24.88;18.35;;;11.80;99.90;;;;;;5031757;28;20107;-64
2023/10/20 02:23:42;;;;;;;21.48;17.48;;;11.80;99.90;;;;;;5004278;28;20049;-63
2023/10/20 02:26:17;;;;;;;26.17;20.13;;;11.70;99.90;;;;;;5021311;28;20037;-64
2023/10/20 02:28:48;;;;;;;;;;;11.70;99.90;;;;;;5022870;28;20045;-64
2023/10/20 02:31:20;;;;;;;23.75;17.77;;;11.70;99.90;;;;;;5009851;28;19964;-64
2023/10/20 02:33:52;;;;;;;24.70;18.52;;;11.70;99.90;;;;;;5017254;28;20045;-64
2023/10/20 02:36:24;;;;;;;23.83;17.27;;;11.70;99.90;;;;;;5014750;28;20041;-64
2023/10/20 02:38:58;;;;;;;22.25;18.05;;;11.70;99.90;;;;;;5013107;28;20050;-64
2023/10/20 02:41:30;;;;;;;21.83;17.27;;;11.70;99.90;;;;;;5013023;28;20038;-65
2023/10/20 02:43:57;;;;;;;24.20;18.25;;;11.70;99.90;;;;;;5013303;28;20042;-64
2023/10/20 02:46:28;;;;;;;21.55;17.45;;;11.70;99.90;;;;;;5016687;28;20556;-64
2023/10/20 02:49:00;;;;;;;27.83;19.00;;;11.70;99.90;;;;;;4995918;28;20038;-64
2023/10/20 02:51:32;;;;;;;23.45;18.90;;;11.70;99.90;;;;;;5003449;28;20048;-64
2023/10/20 02:54:04;;;;;;;22.75;18.33;;;11.70;99.90;;;;;;5020684;28;20069;-64
2023/10/20 02:56:36;;;;;;;22.00;17.60;;;11.70;99.90;;;;;;5019049;28;20053;-64
2023/10/20 02:59:08;;;;;;;25.02;18.73;;;11.70;99.90;;;;;;5019918;28;20628;-64
2023/10/20 03:01:36;;;;;;;25.10;19.25;;;11.70;99.90;;;;;;5017525;28;20115;-64
2023/10/20 03:04:08;;;;;;;23.27;18.05;;;11.70;99.90;;;;;;5004566;28;20076;-64
2023/10/20 03:06:41;;;;;;;25.92;20.25;;;11.70;99.90;;;;;;5018372;28;20104;-65
2023/10/20 03:09:08;;;;;;;24.63;19.52;;;11.60;99.90;;;;;;5013427;28;20038;-65
2023/10/20 03:11:35;;;;;;;25.80;19.98;;;11.70;99.90;;;;;;5018849;28;20136;-65
2023/10/20 03:14:07;;;;;;;26.65;19.85;;;11.60;99.90;;;;;;5016216;28;20038;-65
2023/10/20 03:16:42;;;;;;;22.10;17.95;;;11.60;99.90;;;;;;4998708;28;20038;-66
2023/10/20 03:19:14;;;;;;;24.63;19.13;;;11.50;99.90;;;;;;5013855;28;20132;-64
2023/10/20 03:21:47;;;;;;;27.88;19.55;;;11.50;99.90;;;;;;4995160;28;20076;-64
2023/10/20 03:24:19;;;;;;;26.45;19.27;;;11.50;99.90;;;;;;5023684;28;20046;-64
2023/10/20 03:26:51;;;;;;;27.23;20.17;;;11.60;99.90;;;;;;5018187;28;20545;-64
2023/10/20 03:29:23;;;;;;;26.38;21.20;;;11.60;99.90;;;;;;5021719;28;20045;-64
2023/10/20 03:31:56;;;;;;;25.30;20.53;;;11.50;99.90;;;;;;5018399;28;20046;-65
2023/10/20 03:34:28;;;;;;;29.45;22.23;;;11.50;99.90;;;;;;5002178;28;20120;-64
2023/10/20 03:36:55;;;;;;;30.10;21.98;;;11.50;99.90;;;;;;5016376;28;20052;-65
2023/10/20 03:39:22;;;;;;;30.63;22.10;;;11.50;99.90;;;;;;5017702;28;20120;-64
2023/10/20 03:41:49;;;;;;;29.05;21.67;;;11.60;99.90;;;;;;5013229;28;20046;-64
2023/10/20 03:44:22;;;;;;;28.02;20.83;;;11.60;99.90;;;;;;5023873;28;20046;-64
2023/10/20 03:46:57;;;;;;;28.48;22.20;;;11.60;99.90;;;;;;5013203;28;20049;-64
2023/10/20 03:49:33;;;;;;;32.65;22.42;;;11.60;99.90;;;;;;5000304;28;20033;-64
2023/10/20 03:52:06;;;;;;;34.20;26.40;;;11.60;99.90;;;;;;5014599;28;20101;-65
2023/10/20 03:54:38;;;;;;;28.77;23.73;;;11.50;99.90;;;;;;5016947;28;20080;-64
2023/10/20 03:57:15;;;;;;;29.65;24.02;;;11.50;99.90;;;;;;5019589;28;20536;-64
2023/10/20 03:59:47;;;;;;;31.77;23.65;;;11.50;99.90;;;;;;5017197;28;20077;-65
2023/10/20 04:02:19;;;;;;;33.13;24.25;;;11.50;99.90;;;;;;5018985;28;20064;-64
2023/10/20 04:04:51;;;;;;;33.00;23.80;;;11.50;99.90;;;;;;5018135;28;20414;-65
2023/10/20 04:07:24;;;;;;;33.40;24.80;;;11.50;99.90;;;;;;5016899;28;20100;-65
2023/10/20 04:09:51;;;;;;;29.38;23.67;;;11.50;99.90;;;;;;5013344;28;20414;-64
2023/10/20 04:12:17;;;;;;;30.83;23.83;;;11.50;99.90;;;;;;5016289;28;20073;-65
2023/10/20 04:14:44;;;;;;;29.33;22.48;;;11.50;99.90;;;;;;5009666;28;20038;-64
2023/10/20 04:17:16;;;;;;;30.15;23.42;;;11.40;99.90;;;;;;5017782;28;20045;-64
2023/10/20 04:19:43;;;;;;;30.88;22.83;;;11.50;99.90;;;;;;5013278;28;20505;-64
2023/10/20 04:22:13;;;;;;;31.45;23.05;;;11.50;99.90;;;;;;5017343;28;20488;-64
2023/10/20 04:24:45;;;;;;;39.67;25.27;;;11.40;99.90;;;;;;5013405;28;20064;-64
2023/10/20 04:27:38;;;;;;;31.38;23.75;;;11.50;99.90;;;;;;5021407;28;20801;-65
2023/10/20 04:57:52;;;;;;;34.88;25.13;;;11.30;99.90;;;;;;5018193;28;20045;-64
2023/10/20 05:03:15;;;;;;;35.28;26.60;;;11.30;99.90;;;;;;5017621;28;20060;-64
2023/10/20 05:05:53;;;;;;;34.35;24.27;;;11.30;99.90;;;;;;5011809;28;20153;-67
2023/10/20 05:08:25;;;;;;;32.75;26.08;;;11.30;99.90;;;;;;5018140;28;20108;-64
2023/10/20 05:10:57;;;;;;;33.53;24.88;;;11.30;99.90;;;;;;5024589;28;20053;-64
2023/10/20 05:13:32;;;;;;;35.20;24.98;;;11.30;99.90;;;;;;5014474;28;20034;-64
2023/10/20 05:16:04;;;;;;;33.92;26.13;;;11.20;99.90;;;;;;4992158;28;20046;-64
2023/10/20 05:18:40;;;;;;;31.88;24.30;;;11.20;99.90;;;;;;5012450;28;20053;-64
2023/10/20 05:21:13;;;;;;;33.97;25.83;;;11.20;99.90;;;;;;5026804;28;20497;-64
2023/10/20 05:23:46;;;;;;;34.27;26.93;;;11.20;99.90;;;;;;5012453;28;20041;-63
2023/10/20 05:26:18;;;;;;;33.00;25.15;;;11.20;99.90;;;;;;5013583;28;20042;-63
2023/10/20 05:28:50;;;;;;;36.78;27.15;;;11.10;99.90;;;;;;5018193;28;20041;-64
2023/10/20 05:31:25;;;;;;;39.97;27.48;;;11.10;99.90;;;;;;5001768;28;20037;-64
2023/10/20 05:33:56;;;;;;;32.47;25.90;;;11.10;99.90;;;;;;5019670;28;20029;-64
2023/10/20 05:36:23;;;;;;;34.03;26.05;;;11.10;99.90;;;;;;5024112;28;20038;-64
2023/10/20 05:38:55;;;;;;;37.60;27.27;;;11.10;99.90;;;;;;5015663;28;20048;-63
2023/10/20 05:41:29;;;;;;;32.30;25.42;;;11.10;99.90;;;;;;5017204;28;20038;-65
2023/10/20 05:43:56;;;;;;;40.03;25.92;;;11.10;99.90;;;;;;5013578;28;20129;-64
2023/10/20 05:46:29;;;;;;;34.45;25.70;;;11.10;99.90;;;;;;5014521;28;20069;-64
2023/10/20 05:49:01;;;;;;;35.13;26.97;;;11.00;99.90;;;;;;5014588;28;20037;-64
2023/10/20 05:51:27;;;;;;;33.13;25.90;;;11.00;99.90;;;;;;5019365;28;20034;-64
2023/10/20 05:53:54;;;;;;;37.45;26.20;;;11.00;99.90;;;;;;5021587;28;20136;-63
2023/10/20 05:56:26;;;;;;;34.38;25.73;;;11.00;99.90;;;;;;5023850;28;20046;-63
2023/10/20 05:58:59;;;;;;;33.80;26.48;;;11.00;99.90;;;;;;5019780;28;20572;-63
2023/10/20 06:01:31;;;;;;;37.78;26.38;;;10.90;99.90;;;;;;5012663;28;20034;-63
2023/10/20 06:04:03;;;;;;;36.15;27.08;;;10.90;99.90;;;;;;5017143;28;20052;-63
2023/10/20 06:06:34;;;;;;;33.72;27.27;;;10.90;99.90;;;;;;5018158;28;20131;-64
2023/10/20 06:09:01;;;;;;;36.97;27.25;;;10.90;99.90;;;;;;5014334;28;20104;-63
2023/10/20 06:11:35;;;;;;;36.15;27.40;;;10.90;99.90;;;;;;5011253;28;20038;-63
2023/10/20 06:14:07;;;;;;;33.63;27.02;;;10.90;99.90;;;;;;5011753;28;20042;-63
2023/10/20 06:16:39;;;;;;;32.97;26.92;;;10.80;99.90;;;;;;5010044;28;20043;-63
2023/10/20 06:19:06;;;;;;;38.75;27.92;;;10.80;99.90;;;;;;5010194;28;20039;-63
2023/10/20 06:21:42;;;;;;;37.38;28.05;;;10.80;99.90;;;;;;5007482;28;20053;-63
2023/10/20 06:24:14;;;;;;;35.95;27.42;;;10.80;99.90;;;;;;5014840;28;20116;-63
2023/10/20 06:26:47;;;;;;;34.78;27.30;;;10.80;99.90;;;;;;5013125;28;20052;-63
2023/10/20 06:29:38;;;;;;;37.90;28.35;;;10.80;99.90;;;;;;5006566;28;20041;-63
2023/10/20 06:32:22;;;;;;;40.20;27.92;;;10.70;99.90;;;;;;5016340;28;20045;-63
2023/10/20 06:34:51;;;;;;;38.95;28.77;;;10.80;99.90;;;;;;5012871;28;20064;-63
2023/10/20 06:37:31;;;;;;;38.05;27.73;;;10.80;99.90;;;;;;5007727;28;20832;-63
2023/10/20 06:40:04;;;;;;;37.70;27.95;;;10.80;99.90;;;;;;5009504;28;20808;-63
2023/10/20 06:42:36;;;;;;;35.97;27.90;;;10.80;99.90;;;;;;5012375;28;20042;-63
2023/10/20 06:45:10;;;;;;;35.15;28.73;;;10.80;99.90;;;;;;5008870;28;20053;-63
2023/10/20 06:47:39;;;;;;;38.20;28.38;;;10.80;99.90;;;;;;5008235;28;20502;-63
2023/10/20 06:50:07;;;;;;;36.10;27.88;;;10.90;99.90;;;;;;5008755;28;20038;-63
2023/10/20 06:52:39;;;;;;;40.72;28.58;;;10.90;99.90;;;;;;5017622;28;20049;-63
2023/10/20 06:55:11;;;;;;;42.92;29.77;;;10.90;99.90;;;;;;5016368;28;20045;-63
2023/10/20 06:57:43;;;;;;;78.03;42.53;;;10.90;99.90;;;;;;5016181;28;20407;-63
2023/10/20 07:00:17;;;;;;;46.28;32.83;;;10.90;99.90;;;;;;5009134;28;20045;-63
2023/10/20 07:02:49;;;;;;;42.28;29.50;;;10.90;99.90;;;;;;5017560;28;20048;-63
2023/10/20 07:05:23;;;;;;;37.33;28.02;;;11.00;99.90;;;;;;5021999;28;20045;-63
2023/10/20 07:07:50;;;;;;;37.33;28.77;;;10.90;99.90;;;;;;5015409;28;20051;-63
2023/10/20 07:10:22;;;;;;;38.45;29.05;;;10.90;99.90;;;;;;5010137;28;20045;-64
2023/10/20 07:12:54;;;;;;;40.25;29.15;;;11.00;99.90;;;;;;5014301;28;20033;-64
2023/10/20 07:15:26;;;;;;;32.58;26.02;;;11.00;99.90;;;;;;5002871;28;20455;-63
2023/10/20 07:17:52;;;;;;;37.53;27.45;;;11.00;99.90;;;;;;5011473;28;20166;-67
2023/10/20 07:20:24;;;;;;;36.53;27.75;;;11.00;99.90;;;;;;5005128;28;20145;-63
2023/10/20 07:22:52;;;;;;;39.75;28.33;;;11.00;99.90;;;;;;5013881;28;20133;-64
2023/10/20 07:25:18;;;;;;;37.15;27.50;;;11.00;99.90;;;;;;5014923;28;20126;-64
2023/10/20 07:27:50;;;;;;;40.45;28.23;;;11.00;99.90;;;;;;5016785;28;20409;-64
2023/10/20 07:30:23;;;;;;;39.67;28.20;;;11.00;99.90;;;;;;5004841;28;20046;-63
2023/10/20 07:32:55;;;;;;;37.95;28.17;;;11.00;99.90;;;;;;5002109;28;20086;-64
2023/10/20 07:35:27;;;;;;;37.28;27.23;;;11.10;99.90;;;;;;5014468;28;20064;-63
2023/10/20 07:37:59;;;;;;;36.15;27.45;;;11.10;99.90;;;;;;5007685;28;20038;-64
2023/10/20 07:40:34;;;;;;;36.72;28.75;;;11.10;99.90;;;;;;5005776;28;20056;-63
2023/10/20 07:43:06;;;;;;;35.95;28.20;;;11.10;99.90;;;;;;5007651;28;20069;-63
2023/10/20 07:45:40;;;;;;;36.47;26.60;;;11.20;99.90;;;;;;5013095;28;20095;-64
2023/10/20 07:48:08;;;;;;;34.65;26.15;;;11.20;99.90;;;;;;5010964;28;20136;-63
2023/10/20 07:50:40;;;;;;;35.03;26.40;;;11.20;99.90;;;;;;4996529;28;20046;-64
2023/10/20 07:53:12;;;;;;;37.33;28.75;;;11.20;99.90;;;;;;5008312;28;20061;-63
2023/10/20 07:55:39;;;;;;;35.90;26.65;;;11.20;99.90;;;;;;5011059;28;20046;-63
2023/10/20 07:58:08;;;;;;;38.65;28.67;;;11.30;99.90;;;;;;5010776;28;20052;-63
2023/10/20 08:00:40;;;;;;;36.15;26.58;;;11.30;99.90;;;;;;5010728;28;20048;-63
2023/10/20 08:03:12;;;;;;;35.95;26.23;;;11.30;99.90;;;;;;5016070;28;20513;-63
2023/10/20 08:05:44;;;;;;;39.75;27.10;;;11.30;99.90;;;;;;5014744;28;20042;-63
2023/10/20 08:08:17;;;;;;;36.00;27.52;;;11.30;99.90;;;;;;5019545;28;20144;-63
2023/10/20 08:10:49;;;;;;;35.83;27.63;;;11.40;99.90;;;;;;5014186;28;20475;-64
2023/10/20 08:13:16;;;;;;;35.22;26.98;;;11.40;99.90;;;;;;5006552;28;20038;-63
2023/10/20 08:15:48;;;;;;;35.42;26.95;;;11.50;99.90;;;;;;5016112;28;20125;-64
2023/10/20 08:18:20;;;;;;;34.30;26.42;;;11.50;99.90;;;;;;5006410;28;20157;-63
2023/10/20 08:20:52;;;;;;;36.33;28.10;;;11.50;99.90;;;;;;5010442;28;20049;-63
2023/10/20 08:23:24;;;;;;;38.15;27.23;;;11.60;99.90;;;;;;5000630;28;20050;-63
2023/10/20 08:25:50;;;;;;;38.33;28.77;;;11.60;99.90;;;;;;5010017;28;20110;-64
2023/10/20 08:28:23;;;;;;;36.30;26.83;;;11.60;99.90;;;;;;5007501;28;20126;-64
2023/10/20 08:31:02;;;;;;;35.13;27.98;;;11.60;99.90;;;;;;5006287;28;20038;-63
2023/10/20 08:33:29;;;;;;;38.40;31.73;;;11.70;99.90;;;;;;5011459;28;20040;-63
2023/10/20 08:36:11;;;;;;;36.80;29.00;;;11.70;99.90;;;;;;5013018;28;20045;-63
2023/10/20 08:38:45;;;;;;;36.78;26.52;;;11.80;99.90;;;;;;5010799;28;20037;-65
2023/10/20 08:41:22;;;;;;;33.78;27.08;;;11.90;99.90;;;;;;5012051;28;20057;-63
2023/10/20 08:43:55;;;;;;;35.78;27.02;;;11.90;99.90;;;;;;5007929;28;20096;-63
2023/10/20 08:46:27;;;;;;;35.75;27.33;;;12.00;99.90;;;;;;5011187;28;20401;-63
2023/10/20 08:49:02;;;;;;;35.63;27.77;;;12.00;99.90;;;;;;5013473;28;20061;-63
2023/10/20 08:51:38;;;;;;;32.35;25.85;;;12.10;99.90;;;;;;5006587;28;20136;-64
2023/10/20 08:54:13;;;;;;;39.83;27.17;;;12.10;99.90;;;;;;4999127;28;20133;-63
2023/10/20 08:56:45;;;;;;;35.17;26.13;;;12.20;99.90;;;;;;5010837;28;20505;-63
2023/10/20 08:59:17;;;;;;;31.48;24.90;;;12.30;99.90;;;;;;5007382;28;20636;-63
2023/10/20 09:01:50;;;;;;;31.40;25.27;;;12.30;99.90;;;;;;5020404;28;20049;-63
2023/10/20 09:04:24;;;;;;;32.38;25.48;;;12.40;99.90;;;;;;5004266;28;20714;-63
2023/10/20 09:06:56;;;;;;;31.83;25.05;;;12.50;99.90;;;;;;5017640;28;20398;-63
2023/10/20 09:09:28;;;;;;;29.35;23.73;;;12.60;99.90;;;;;;5019933;28;20379;-64
2023/10/20 09:12:00;;;;;;;32.30;24.65;;;12.60;99.90;;;;;;5017229;28;20076;-64
2023/10/20 09:14:32;;;;;;;30.65;23.38;;;12.60;99.90;;;;;;5016522;28;20124;-65
2023/10/20 09:17:01;;;;;;;31.40;25.80;;;12.60;99.90;;;;;;5034100;28;20041;-64
2023/10/20 09:19:33;;;;;;;32.78;25.10;;;12.70;99.90;;;;;;5016481;28;20034;-64
2023/10/20 09:22:05;;;;;;;36.53;26.80;;;12.70;99.90;;;;;;5016546;28;20931;-64
2023/10/20 09:24:37;;;;;;;37.67;27.67;;;12.80;99.90;;;;;;5026112;28;20117;-64
2023/10/20 09:27:09;;;;;;;36.42;27.20;;;12.80;99.90;;;;;;5016222;28;20113;-63
2023/10/20 09:29:41;;;;;;;36.67;27.50;;;12.80;99.90;;;;;;5019250;28;20053;-64
2023/10/20 09:32:08;;;;;;;37.88;27.15;;;12.70;99.90;;;;;;5020749;28;20523;-64
2023/10/20 09:34:40;;;;;;;35.92;27.20;;;12.80;99.90;;;;;;5021071;28;20510;-64
2023/10/20 09:37:14;;;;;;;37.05;27.73;;;12.80;99.90;;;;;;5024139;28;20044;-63
2023/10/20 09:39:43;;;;;;;34.75;27.20;;;12.70;99.90;;;;;;5026925;28;20119;-63
2023/10/20 09:42:17;;;;;;;33.60;26.85;;;12.70;99.90;;;;;;5022957;28;20410;-63
2023/10/20 09:45:06;;;;;;;34.65;26.83;;;12.70;99.90;;;;;;5012561;28;20050;-64
2023/10/20 09:47:42;;;;;;;41.97;27.20;;;12.70;99.90;;;;;;5019643;28;20050;-63
2023/10/20 09:50:18;;;;;;;33.55;26.13;;;12.80;99.90;;;;;;5014858;28;20132;-63
2023/10/20 09:52:51;;;;;;;31.83;24.13;;;12.90;99.90;;;;;;5015516;28;20041;-64
2023/10/20 09:55:19;;;;;;;30.05;23.20;;;13.00;99.90;;;;;;5002686;28;20048;-64
2023/10/20 09:57:51;;;;;;;30.13;22.42;;;13.20;99.90;;;;;;5009074;28;20602;-63
2023/10/20 10:00:35;;;;;;;27.17;20.88;;;13.40;99.90;;;;;;5009299;28;20054;-63
2023/10/20 10:03:08;;;;;;;26.45;20.35;;;13.70;99.90;;;;;;5026138;28;20132;-63
2023/10/20 10:05:40;;;;;;;30.13;24.95;;;13.80;99.90;;;;;;5015147;28;20064;-63
2023/10/20 10:08:19;;;;;;;30.45;24.33;;;14.00;99.90;;;;;;5020997;28;20069;-63
2023/10/20 10:10:45;;;;;;;28.52;22.33;;;14.00;99.90;;;;;;5030065;28;20065;-63
2023/10/20 10:13:13;;;;;;;31.27;24.08;;;14.00;99.90;;;;;;5016944;28;20128;-63
2023/10/20 10:15:49;;;;;;;28.75;23.70;;;14.00;99.90;;;;;;5029728;28;20137;-63
2023/10/20 10:18:24;;;;;;;32.33;24.00;;;14.00;99.90;;;;;;5012941;28;20033;-63
2023/10/20 10:21:02;;;;;;;29.48;24.83;;;14.00;99.90;;;;;;5004159;28;20116;-63
2023/10/20 10:23:34;;;;;;;27.75;22.00;;;14.00;99.90;;;;;;5014459;28;20041;-63
2023/10/20 10:26:13;;;;;;;28.33;22.30;;;14.10;99.90;;;;;;5003910;28;20125;-64
2023/10/20 10:28:49;;;;;;;13.80;10.75;;;14.20;99.90;;;;;;5010968;28;20130;-63
2023/10/20 10:31:31;;;;;;;8.48;6.22;;;14.40;99.90;;;;;;5009572;28;20133;-63
2023/10/20 10:34:04;;;;;;;7.03;5.03;;;15.20;99.90;;;;;;5013159;28;20509;-63
2023/10/20 10:36:47;;;;;;;11.23;6.45;;;15.80;99.90;;;;;;5014866;28;20066;-63
2023/10/20 10:39:22;;;;;;;6.95;6.00;;;16.40;99.90;;;;;;5013117;28;20041;-63
2023/10/20 10:42:05;;;;;;;7.75;6.95;;;16.70;99.90;;;;;;5013189;28;20532;-63
2023/10/20 10:44:37;;;;;;;8.35;5.80;;;16.90;99.90;;;;;;5019749;28;20048;-63
2023/10/20 10:47:18;;;;;;;6.63;5.77;;;17.00;99.90;;;;;;5018009;28;20045;-63
2023/10/20 10:49:47;;;;;;;9.75;6.70;;;17.10;99.90;;;;;;5017653;28;21134;-63
2023/10/20 10:52:18;;;;;;;6.32;5.72;;;17.10;99.90;;;;;;5016612;28;20045;-63
2023/10/20 10:54:50;;;;;;;6.93;5.57;;;17.20;99.90;;;;;;5013794;28;20054;-63
2023/10/20 10:57:23;;;;;;;6.85;6.05;;;17.20;99.90;;;;;;5027545;28;20046;-63
2023/10/20 10:59:55;;;;;;;6.80;5.63;;;17.40;99.90;;;;;;5005102;28;20039;-63
2023/10/20 11:02:27;;;;;;;7.05;6.20;;;17.60;99.90;;;;;;5015819;28;20049;-63
2023/10/20 11:05:01;;;;;;;6.57;5.38;;;17.60;99.90;;;;;;5018434;28;20717;-63
2023/10/20 11:07:34;;;;;;;6.32;5.40;;;17.50;99.90;;;;;;5017304;28;20052;-63
2023/10/20 11:10:07;;;;;;;7.32;5.72;;;17.40;99.90;;;;;;5023012;28;20076;-63
2023/10/20 11:12:34;;;;;;;6.38;5.60;;;17.30;99.90;;;;;;5019450;28;20144;-64
2023/10/20 11:15:06;;;;;;;7.57;5.68;;;17.20;99.90;;;;;;5022745;28;20052;-63
2023/10/20 11:17:38;;;;;;;6.63;5.93;;;17.10;99.90;;;;;;5019420;28;20050;-63
2023/10/20 11:20:11;;;;;;;7.28;6.05;;;17.10;99.90;;;;;;5016653;28;20408;-63
2023/10/20 11:22:38;;;;;;;7.47;6.50;;;17.10;99.90;;;;;;5015274;28;20512;-64
2023/10/20 11:25:05;;;;;;;7.53;6.65;;;17.10;99.90;;;;;;5013182;28;20522;-63
2023/10/20 11:27:43;;;;;;;6.68;6.07;;;17.20;99.90;;;;;;5009362;28;20049;-63
2023/10/20 11:30:15;;;;;;;9.93;6.90;;;17.00;99.90;;;;;;5008191;28;20053;-63
2023/10/20 11:32:42;;;;;;;6.85;6.13;;;17.00;99.90;;;;;;5002878;28;20052;-63
2023/10/20 11:35:14;;;;;;;7.75;6.88;;;17.00;99.90;;;;;;5023082;28;20539;-63
2023/10/20 11:37:41;;;;;;;8.02;6.65;;;17.00;99.90;;;;;;5011601;28;20124;-63
2023/10/20 11:40:08;;;;;;;9.13;7.22;;;17.10;99.90;;;;;;5008277;28;20034;-63
2023/10/20 11:42:40;;;;;;;8.90;6.63;;;17.10;99.90;;;;;;5014822;28;20125;-63
2023/10/20 11:45:12;;;;;;;7.88;6.80;;;17.10;99.90;;;;;;5014961;28;20029;-63
2023/10/20 11:47:45;;;;;;;9.65;7.68;;;17.10;99.90;;;;;;5013990;28;20579;-63
2023/10/20 11:50:19;;;;;;;7.22;6.45;;;17.20;99.90;;;;;;5014241;28;20030;-63
2023/10/20 11:52:51;;;;;;;8.43;5.55;;;17.20;99.90;;;;;;5007918;28;20037;-63
2023/10/20 11:55:23;;;;;;;7.85;6.28;;;17.30;99.90;;;;;;5021078;28;20041;-63
2023/10/20 11:57:50;;;;;;;6.43;5.70;;;17.30;99.90;;;;;;5007558;28;20042;-63
2023/10/20 12:00:22;;;;;;;7.32;5.68;;;17.30;99.90;;;;;;5003615;28;20041;-63
2023/10/20 12:02:54;;;;;;;7.75;5.53;;;17.40;99.90;;;;;;5007223;28;20042;-63
2023/10/20 12:05:25;;;;;;;6.32;4.57;;;17.40;99.90;;;;;;5004919;28;20047;-63
2023/10/20 12:07:52;;;;;;;5.25;4.28;;;17.40;99.90;;;;;;5018147;28;20056;-63
2023/10/20 12:10:27;;;;;;;4.75;3.75;;;17.40;99.90;;;;;;5011222;28;20041;-63
2023/10/20 12:13:04;;;;;;;3.78;3.40;;;17.50;99.90;;;;;;5013700;28;20124;-63
2023/10/20 12:15:37;;;;;;;2.78;2.40;;;17.70;99.90;;;;;;5014809;28;20049;-63
2023/10/20 12:18:09;;;;;;;2.97;2.63;;;17.70;99.90;;;;;;5015064;28;20062;-63
2023/10/20 12:20:41;;;;;;;2.22;2.03;;;17.70;99.90;;;;;;5017711;28;20052;-63
2023/10/20 12:23:08;;;;;;;3.15;2.38;;;17.60;99.90;;;;;;5016093;28;20120;-63
2023/10/20 12:25:40;;;;;;;2.30;1.88;;;17.60;99.90;;;;;;5013060;28;20502;-63
2023/10/20 12:28:11;;;;;;;2.28;2.00;;;17.50;99.90;;;;;;5009944;28;20038;-63
2023/10/20 12:30:44;;;;;;;1.70;1.58;;;17.50;99.90;;;;;;5021311;28;20036;-63
2023/10/20 12:33:11;;;;;;;3.00;1.98;;;17.50;99.90;;;;;;5012342;28;20387;-63
2023/10/20 12:35:43;;;;;;;1.80;1.50;;;17.70;99.90;;;;;;5022333;28;20116;-63
2023/10/20 12:38:16;;;;;;;4.32;1.55;;;17.80;99.90;;;;;;5019027;28;20728;-63
2023/10/20 12:40:43;;;;;;;2.33;1.30;;;17.90;99.90;;;;;;5020347;28;20033;-63
2023/10/20 12:43:16;;;;;;;1.60;1.33;;;17.90;99.90;;;;;;5017253;28;20045;-63
2023/10/20 12:45:48;;;;;;;1.85;1.20;;;17.80;99.90;;;;;;5019929;28;20509;-63
2023/10/20 12:48:20;;;;;;;2.95;1.10;;;17.80;99.90;;;;;;5018839;28;20033;-63
2023/10/20 12:50:47;;;;;;;2.80;1.40;;;17.70;99.90;;;;;;5014148;28;20041;-63
2023/10/20 12:53:21;;;;;;;2.28;1.17;;;17.70;99.90;;;;;;5018349;28;20041;-67
2023/10/20 12:55:48;;;;;;;2.35;1.30;;;17.60;99.90;;;;;;5014911;28;20034;-63
2023/10/20 12:58:20;;;;;;;2.05;0.80;;;17.60;99.90;;;;;;5021968;28;20049;-64
2023/10/20 13:00:52;;;;;;;1.45;0.90;;;17.60;99.90;;;;;;5009428;28;20039;-63
2023/10/20 13:03:26;;;;;;;0.80;0.57;;;17.60;99.90;;;;;;5013130;28;20037;-62
2023/10/20 13:05:58;;;;;;;1.17;0.75;;;17.70;99.90;;;;;;5010224;28;20041;-62
2023/10/20 13:08:30;;;;;;;2.85;1.48;;;17.80;99.90;;;;;;5020411;28;20088;-62
2023/10/20 13:11:02;;;;;;;1.48;0.70;;;17.80;99.90;;;;;;5015298;28;20037;-63
2023/10/20 13:13:33;;;;;;;1.10;0.70;;;17.80;99.90;;;;;;5031073;28;20125;-62
2023/10/20 13:16:03;;;;;;;0.68;0.57;;;17.80;99.90;;;;;;5021280;28;20036;-63
2023/10/20 13:18:35;;;;;;;1.02;0.70;;;17.70;99.90;;;;;;5012726;28;20044;-62
2023/10/20 13:21:07;;;;;;;1.45;0.47;;;17.70;99.90;;;;;;5012771;28;20054;-62
2023/10/20 13:23:39;;;;;;;1.58;0.93;;;17.70;99.90;;;;;;5019890;28;20067;-62
2023/10/20 13:26:11;;;;;;;0.40;0.30;;;17.70;99.90;;;;;;5013032;28;20453;-62
2023/10/20 13:28:43;;;;;;;1.85;0.43;;;17.60;99.90;;;;;;5011929;28;20070;-63